sensor_id;sensor_type;location;lat;lon;timestamp;temperature;humidity
21169;DHT22;10742;51.816;8.662;2023-04-22T00:01:59;17.90;61.40
21169;DHT22;10742;51.816;8.662;2023-04-22T00:05:03;17.80;61.60
21169;DHT22;10742;51.816;8.662;2023-04-22T00:08:07;17.70;61.80
21169;DHT22;10742;51.816;8.662;2023-04-22T00:11:09;17.70;62.20
21169;DHT22;10742;51.816;8.662;2023-04-22T00:14:12;17.70;62.30
21169;DHT22;10742;51.816;8.662;2023-04-22T00:17:15;17.60;62.40
21169;DHT22;10742;51.816;8.662;2023-04-22T00:20:21;17.60;62.60
21169;DHT22;10742;51.816;8.662;2023-04-22T00:23:23;17.60;63.00
21169;DHT22;10742;51.816;8.662;2023-04-22T00:26:26;17.60;62.90
21169;DHT22;10742;51.816;8.662;2023-04-22T00:29:28;17.60;63.00
21169;DHT22;10742;51.816;8.662;2023-04-22T00:32:31;17.60;63.10
21169;DHT22;10742;51.816;8.662;2023-04-22T00:35:34;17.60;63.20
21169;DHT22;10742;51.816;8.662;2023-04-22T00:38:36;17.60;63.30
21169;DHT22;10742;51.816;8.662;2023-04-22T00:46:40;17.60;64.00
21169;DHT22;10742;51.816;8.662;2023-04-22T00:49:42;17.60;63.60
21169;DHT22;10742;51.816;8.662;2023-04-22T00:52:45;17.60;63.50
21169;DHT22;10742;51.816;8.662;2023-04-22T00:55:48;17.60;63.60
21169;DHT22;10742;51.816;8.662;2023-04-22T00:58:51;17.60;63.80
21169;DHT22;10742;51.816;8.662;2023-04-22T01:01:55;17.50;63.80
21169;DHT22;10742;51.816;8.662;2023-04-22T01:04:58;17.50;63.90
21169;DHT22;10742;51.816;8.662;2023-04-22T01:08:01;17.50;64.10
21169;DHT22;10742;51.816;8.662;2023-04-22T01:11:04;17.50;64.00
21169;DHT22;10742;51.816;8.662;2023-04-22T01:14:06;17.40;64.10
21169;DHT22;10742;51.816;8.662;2023-04-22T01:17:08;17.30;65.00
21169;DHT22;10742;51.816;8.662;2023-04-22T01:20:14;17.30;64.40
21169;DHT22;10742;51.816;8.662;2023-04-22T01:23:19;17.20;64.40
21169;DHT22;10742;51.816;8.662;2023-04-22T01:26:22;17.20;64.80
21169;DHT22;10742;51.816;8.662;2023-04-22T01:29:25;17.10;65.60
21169;DHT22;10742;51.816;8.662;2023-04-22T01:32:28;17.10;65.00
21169;DHT22;10742;51.816;8.662;2023-04-22T01:35:31;17.00;65.10
21169;DHT22;10742;51.816;8.662;2023-04-22T01:38:39;17.00;65.30
21169;DHT22;10742;51.816;8.662;2023-04-22T01:41:41;16.90;65.50
21169;DHT22;10742;51.816;8.662;2023-04-22T01:44:44;16.80;65.70
21169;DHT22;10742;51.816;8.662;2023-04-22T01:47:47;16.80;65.90
21169;DHT22;10742;51.816;8.662;2023-04-22T01:50:50;16.70;66.00
21169;DHT22;10742;51.816;8.662;2023-04-22T01:53:52;16.70;66.30
21169;DHT22;10742;51.816;8.662;2023-04-22T01:56:58;16.60;66.50
21169;DHT22;10742;51.816;8.662;2023-04-22T02:00:02;16.60;66.50
21169;DHT22;10742;51.816;8.662;2023-04-22T02:03:13;16.60;66.90
21169;DHT22;10742;51.816;8.662;2023-04-22T02:06:16;16.50;66.80
21169;DHT22;10742;51.816;8.662;2023-04-22T02:09:18;16.50;67.10
21169;DHT22;10742;51.816;8.662;2023-04-22T02:12:21;16.40;67.10
21169;DHT22;10742;51.816;8.662;2023-04-22T02:15:23;16.40;67.40
21169;DHT22;10742;51.816;8.662;2023-04-22T02:18:28;16.30;67.60
21169;DHT22;10742;51.816;8.662;2023-04-22T02:21:30;16.30;67.80
21169;DHT22;10742;51.816;8.662;2023-04-22T02:24:37;16.30;68.10
21169;DHT22;10742;51.816;8.662;2023-04-22T02:27:39;16.20;68.10
21169;DHT22;10742;51.816;8.662;2023-04-22T02:30:43;16.20;68.10
21169;DHT22;10742;51.816;8.662;2023-04-22T02:33:46;16.10;68.50
21169;DHT22;10742;51.816;8.662;2023-04-22T02:36:50;16.10;68.40
21169;DHT22;10742;51.816;8.662;2023-04-22T02:39:53;16.00;68.60
21169;DHT22;10742;51.816;8.662;2023-04-22T02:42:55;16.00;69.00
21169;DHT22;10742;51.816;8.662;2023-04-22T02:45:58;16.00;69.30
21169;DHT22;10742;51.816;8.662;2023-04-22T02:49:00;15.90;69.50
21169;DHT22;10742;51.816;8.662;2023-04-22T02:52:04;15.90;69.70
21169;DHT22;10742;51.816;8.662;2023-04-22T02:55:07;15.90;70.00
21169;DHT22;10742;51.816;8.662;2023-04-22T02:58:09;15.90;70.10
21169;DHT22;10742;51.816;8.662;2023-04-22T03:01:12;15.90;70.20
21169;DHT22;10742;51.816;8.662;2023-04-22T03:04:15;15.80;70.40
21169;DHT22;10742;51.816;8.662;2023-04-22T03:07:18;15.80;71.20
21169;DHT22;10742;51.816;8.662;2023-04-22T03:10:20;15.80;70.60
21169;DHT22;10742;51.816;8.662;2023-04-22T03:13:23;15.80;70.60
21169;DHT22;10742;51.816;8.662;2023-04-22T03:16:25;15.80;70.80
21169;DHT22;10742;51.816;8.662;2023-04-22T03:19:30;15.80;71.00
21169;DHT22;10742;51.816;8.662;2023-04-22T03:22:33;15.80;71.20
21169;DHT22;10742;51.816;8.662;2023-04-22T03:25:37;15.80;71.50
21169;DHT22;10742;51.816;8.662;2023-04-22T03:28:40;15.80;71.60
21169;DHT22;10742;51.816;8.662;2023-04-22T03:31:42;15.80;71.90
21169;DHT22;10742;51.816;8.662;2023-04-22T03:34:45;15.80;72.00
21169;DHT22;10742;51.816;8.662;2023-04-22T03:37:47;15.80;72.20
21169;DHT22;10742;51.816;8.662;2023-04-22T03:40:54;15.90;73.10
21169;DHT22;10742;51.816;8.662;2023-04-22T03:44:10;15.90;72.40
21169;DHT22;10742;51.816;8.662;2023-04-22T03:47:13;15.90;72.40
21169;DHT22;10742;51.816;8.662;2023-04-22T03:50:21;15.90;72.50
21169;DHT22;10742;51.816;8.662;2023-04-22T03:53:26;15.90;72.50
21169;DHT22;10742;51.816;8.662;2023-04-22T03:56:29;15.90;72.70
21169;DHT22;10742;51.816;8.662;2023-04-22T03:59:34;16.00;72.80
21169;DHT22;10742;51.816;8.662;2023-04-22T04:02:37;16.00;72.90
21169;DHT22;10742;51.816;8.662;2023-04-22T04:05:39;16.00;73.00
21169;DHT22;10742;51.816;8.662;2023-04-22T04:08:43;15.90;73.10
21169;DHT22;10742;51.816;8.662;2023-04-22T04:11:45;16.00;73.30
21169;DHT22;10742;51.816;8.662;2023-04-22T04:14:48;16.00;73.30
21169;DHT22;10742;51.816;8.662;2023-04-22T04:17:54;16.00;73.30
21169;DHT22;10742;51.816;8.662;2023-04-22T04:21:00;16.00;73.60
21169;DHT22;10742;51.816;8.662;2023-04-22T04:24:06;15.90;73.60
21169;DHT22;10742;51.816;8.662;2023-04-22T04:27:15;15.90;73.70
21169;DHT22;10742;51.816;8.662;2023-04-22T04:30:24;15.90;74.60
21169;DHT22;10742;51.816;8.662;2023-04-22T04:33:29;15.90;74.00
21169;DHT22;10742;51.816;8.662;2023-04-22T04:36:33;15.90;74.20
21169;DHT22;10742;51.816;8.662;2023-04-22T04:39:46;15.90;74.30
21169;DHT22;10742;51.816;8.662;2023-04-22T04:42:50;16.00;74.60
21169;DHT22;10742;51.816;8.662;2023-04-22T04:46:01;16.00;74.60
21169;DHT22;10742;51.816;8.662;2023-04-22T04:49:09;16.00;74.80
21169;DHT22;10742;51.816;8.662;2023-04-22T04:52:25;16.00;75.00
21169;DHT22;10742;51.816;8.662;2023-04-22T04:55:28;16.00;75.20
21169;DHT22;10742;51.816;8.662;2023-04-22T04:58:32;16.10;75.40
21169;DHT22;10742;51.816;8.662;2023-04-22T05:01:46;16.10;75.50
21169;DHT22;10742;51.816;8.662;2023-04-22T05:04:49;16.10;75.50
21169;DHT22;10742;51.816;8.662;2023-04-22T05:07:51;16.10;75.70
21169;DHT22;10742;51.816;8.662;2023-04-22T05:10:55;16.20;75.80
21169;DHT22;10742;51.816;8.662;2023-04-22T05:13:58;16.20;76.00
21169;DHT22;10742;51.816;8.662;2023-04-22T05:17:06;16.30;76.10
21169;DHT22;10742;51.816;8.662;2023-04-22T05:20:09;16.30;76.20
21169;DHT22;10742;51.816;8.662;2023-04-22T05:23:14;16.40;76.30
21169;DHT22;10742;51.816;8.662;2023-04-22T05:26:17;16.40;76.10
21169;DHT22;10742;51.816;8.662;2023-04-22T05:29:22;16.40;76.20
21169;DHT22;10742;51.816;8.662;2023-04-22T05:32:25;16.50;76.10
21169;DHT22;10742;51.816;8.662;2023-04-22T05:35:28;16.60;77.00
21169;DHT22;10742;51.816;8.662;2023-04-22T05:38:30;16.60;76.20
21169;DHT22;10742;51.816;8.662;2023-04-22T05:41:34;16.70;76.30
21169;DHT22;10742;51.816;8.662;2023-04-22T05:44:39;16.70;76.30
21169;DHT22;10742;51.816;8.662;2023-04-22T05:47:42;16.80;76.20
21169;DHT22;10742;51.816;8.662;2023-04-22T05:50:45;16.80;76.10
21169;DHT22;10742;51.816;8.662;2023-04-22T05:53:49;16.90;76.10
21169;DHT22;10742;51.816;8.662;2023-04-22T05:56:52;16.90;76.10
21169;DHT22;10742;51.816;8.662;2023-04-22T05:59:54;17.00;76.10
21169;DHT22;10742;51.816;8.662;2023-04-22T06:02:57;17.10;76.10
21169;DHT22;10742;51.816;8.662;2023-04-22T06:06:00;17.10;76.10
21169;DHT22;10742;51.816;8.662;2023-04-22T06:09:02;17.20;76.00
21169;DHT22;10742;51.816;8.662;2023-04-22T06:12:05;17.20;76.00
21169;DHT22;10742;51.816;8.662;2023-04-22T06:15:09;17.30;76.00
21169;DHT22;10742;51.816;8.662;2023-04-22T06:18:13;17.40;76.00
21169;DHT22;10742;51.816;8.662;2023-04-22T06:21:15;17.50;76.10
21169;DHT22;10742;51.816;8.662;2023-04-22T06:24:18;17.50;76.70
21169;DHT22;10742;51.816;8.662;2023-04-22T06:27:20;17.60;76.60
21169;DHT22;10742;51.816;8.662;2023-04-22T06:30:23;17.80;76.60
21169;DHT22;10742;51.816;8.662;2023-04-22T06:33:26;17.90;76.60
21169;DHT22;10742;51.816;8.662;2023-04-22T06:36:28;18.10;76.30
21169;DHT22;10742;51.816;8.662;2023-04-22T06:39:35;18.20;76.10
21169;DHT22;10742;51.816;8.662;2023-04-22T06:42:58;18.30;75.90
21169;DHT22;10742;51.816;8.662;2023-04-22T06:46:27;18.50;75.50
21169;DHT22;10742;51.816;8.662;2023-04-22T06:49:57;18.70;75.10
21169;DHT22;10742;51.816;8.662;2023-04-22T06:53:05;18.90;74.50
21169;DHT22;10742;51.816;8.662;2023-04-22T06:56:07;18.90;73.80
21169;DHT22;10742;51.816;8.662;2023-04-22T06:59:09;19.00;73.30
21169;DHT22;10742;51.816;8.662;2023-04-22T07:02:12;19.10;73.30
21169;DHT22;10742;51.816;8.662;2023-04-22T07:05:15;19.20;73.10
21169;DHT22;10742;51.816;8.662;2023-04-22T07:08:19;19.30;73.10
21169;DHT22;10742;51.816;8.662;2023-04-22T07:11:22;19.40;72.80
21169;DHT22;10742;51.816;8.662;2023-04-22T07:14:44;19.50;72.50
21169;DHT22;10742;51.816;8.662;2023-04-22T07:17:47;19.60;72.00
21169;DHT22;10742;51.816;8.662;2023-04-22T07:20:49;19.80;71.80
21169;DHT22;10742;51.816;8.662;2023-04-22T07:23:52;19.90;71.50
21169;DHT22;10742;51.816;8.662;2023-04-22T07:26:55;20.00;71.30
21169;DHT22;10742;51.816;8.662;2023-04-22T07:29:57;20.10;71.00
21169;DHT22;10742;51.816;8.662;2023-04-22T07:32:59;20.20;71.00
21169;DHT22;10742;51.816;8.662;2023-04-22T07:36:02;20.30;70.80
21169;DHT22;10742;51.816;8.662;2023-04-22T07:39:05;20.50;70.90
21169;DHT22;10742;51.816;8.662;2023-04-22T07:42:07;20.70;70.50
21169;DHT22;10742;51.816;8.662;2023-04-22T07:45:10;20.80;70.30
21169;DHT22;10742;51.816;8.662;2023-04-22T07:48:12;21.00;69.70
21169;DHT22;10742;51.816;8.662;2023-04-22T07:51:15;21.20;69.20
21169;DHT22;10742;51.816;8.662;2023-04-22T07:54:18;21.40;68.90
21169;DHT22;10742;51.816;8.662;2023-04-22T07:57:20;21.50;68.40
21169;DHT22;10742;51.816;8.662;2023-04-22T08:00:23;21.70;67.70
21169;DHT22;10742;51.816;8.662;2023-04-22T08:03:26;21.80;67.30
21169;DHT22;10742;51.816;8.662;2023-04-22T08:06:29;21.90;66.60
21169;DHT22;10742;51.816;8.662;2023-04-22T08:09:32;22.00;66.30
21169;DHT22;10742;51.816;8.662;2023-04-22T08:12:34;22.10;65.80
21169;DHT22;10742;51.816;8.662;2023-04-22T08:15:55;22.20;65.40
21169;DHT22;10742;51.816;8.662;2023-04-22T08:19:17;22.30;65.40
21169;DHT22;10742;51.816;8.662;2023-04-22T08:22:20;22.40;65.30
21169;DHT22;10742;51.816;8.662;2023-04-22T08:25:23;22.50;65.10
21169;DHT22;10742;51.816;8.662;2023-04-22T08:28:26;22.60;64.60
21169;DHT22;10742;51.816;8.662;2023-04-22T08:31:29;22.70;64.50
21169;DHT22;10742;51.816;8.662;2023-04-22T08:34:32;22.80;64.10
21169;DHT22;10742;51.816;8.662;2023-04-22T08:37:34;22.90;63.90
21169;DHT22;10742;51.816;8.662;2023-04-22T08:40:40;23.00;64.00
21169;DHT22;10742;51.816;8.662;2023-04-22T08:43:43;23.10;63.60
21169;DHT22;10742;51.816;8.662;2023-04-22T08:46:46;23.20;63.50
21169;DHT22;10742;51.816;8.662;2023-04-22T08:49:50;23.30;63.50
21169;DHT22;10742;51.816;8.662;2023-04-22T08:52:54;23.50;63.60
21169;DHT22;10742;51.816;8.662;2023-04-22T08:55:57;23.60;62.50
21169;DHT22;10742;51.816;8.662;2023-04-22T08:59:00;23.70;62.00
21169;DHT22;10742;51.816;8.662;2023-04-22T09:02:04;23.90;61.80
21169;DHT22;10742;51.816;8.662;2023-04-22T09:05:09;24.00;60.90
21169;DHT22;10742;51.816;8.662;2023-04-22T09:08:13;24.20;60.40
21169;DHT22;10742;51.816;8.662;2023-04-22T09:11:17;24.20;60.10
21169;DHT22;10742;51.816;8.662;2023-04-22T09:14:20;24.40;59.80
21169;DHT22;10742;51.816;8.662;2023-04-22T09:17:34;24.50;59.70
21169;DHT22;10742;51.816;8.662;2023-04-22T09:20:41;24.60;59.00
21169;DHT22;10742;51.816;8.662;2023-04-22T09:23:51;24.70;59.30
21169;DHT22;10742;51.816;8.662;2023-04-22T09:26:54;24.90;58.90
21169;DHT22;10742;51.816;8.662;2023-04-22T09:29:58;25.00;58.90
21169;DHT22;10742;51.816;8.662;2023-04-22T09:33:03;25.20;58.60
21169;DHT22;10742;51.816;8.662;2023-04-22T09:36:09;25.30;58.10
21169;DHT22;10742;51.816;8.662;2023-04-22T09:39:11;25.40;57.80
21169;DHT22;10742;51.816;8.662;2023-04-22T09:42:15;25.60;58.30
21169;DHT22;10742;51.816;8.662;2023-04-22T09:45:31;25.70;57.70
21169;DHT22;10742;51.816;8.662;2023-04-22T09:48:41;25.90;56.90
21169;DHT22;10742;51.816;8.662;2023-04-22T09:51:44;26.10;56.60
21169;DHT22;10742;51.816;8.662;2023-04-22T09:54:50;26.20;56.50
21169;DHT22;10742;51.816;8.662;2023-04-22T09:57:56;26.30;55.50
21169;DHT22;10742;51.816;8.662;2023-04-22T10:00:58;26.40;55.30
21169;DHT22;10742;51.816;8.662;2023-04-22T10:04:01;26.50;55.30
21169;DHT22;10742;51.816;8.662;2023-04-22T10:07:04;26.70;55.40
21169;DHT22;10742;51.816;8.662;2023-04-22T10:10:07;26.80;55.00
21169;DHT22;10742;51.816;8.662;2023-04-22T10:13:10;26.90;54.50
21169;DHT22;10742;51.816;8.662;2023-04-22T10:16:13;27.00;54.70
21169;DHT22;10742;51.816;8.662;2023-04-22T10:19:20;27.10;54.50
21169;DHT22;10742;51.816;8.662;2023-04-22T10:22:23;27.20;54.00
21169;DHT22;10742;51.816;8.662;2023-04-22T10:25:26;27.30;53.90
21169;DHT22;10742;51.816;8.662;2023-04-22T10:28:28;27.40;53.40
21169;DHT22;10742;51.816;8.662;2023-04-22T10:31:31;27.50;53.40
21169;DHT22;10742;51.816;8.662;2023-04-22T10:34:35;27.60;53.00
21169;DHT22;10742;51.816;8.662;2023-04-22T10:37:42;27.70;52.70
21169;DHT22;10742;51.816;8.662;2023-04-22T10:41:00;27.80;52.30
21169;DHT22;10742;51.816;8.662;2023-04-22T10:44:07;27.80;51.60
21169;DHT22;10742;51.816;8.662;2023-04-22T10:47:10;27.90;51.50
21169;DHT22;10742;51.816;8.662;2023-04-22T10:50:23;28.00;51.60
21169;DHT22;10742;51.816;8.662;2023-04-22T10:53:35;28.00;51.20
21169;DHT22;10742;51.816;8.662;2023-04-22T11:00:38;28.10;51.00
21169;DHT22;10742;51.816;8.662;2023-04-22T11:03:47;28.10;50.20
21169;DHT22;10742;51.816;8.662;2023-04-22T11:10:42;28.10;49.40
21169;DHT22;10742;51.816;8.662;2023-04-22T11:13:47;28.10;49.40
21169;DHT22;10742;51.816;8.662;2023-04-22T11:16:51;28.20;49.50
21169;DHT22;10742;51.816;8.662;2023-04-22T11:19:54;28.10;49.30
21169;DHT22;10742;51.816;8.662;2023-04-22T11:22:58;28.10;49.00
21169;DHT22;10742;51.816;8.662;2023-04-22T11:26:02;28.10;49.40
21169;DHT22;10742;51.816;8.662;2023-04-22T11:29:05;28.10;49.40
21169;DHT22;10742;51.816;8.662;2023-04-22T11:32:09;28.10;49.40
21169;DHT22;10742;51.816;8.662;2023-04-22T11:35:15;28.20;49.30
21169;DHT22;10742;51.816;8.662;2023-04-22T11:38:18;28.20;49.50
21169;DHT22;10742;51.816;8.662;2023-04-22T11:41:21;28.30;49.80
21169;DHT22;10742;51.816;8.662;2023-04-22T11:44:24;28.30;49.80
21169;DHT22;10742;51.816;8.662;2023-04-22T11:47:31;28.40;49.40
21169;DHT22;10742;51.816;8.662;2023-04-22T11:50:36;28.40;48.90
21169;DHT22;10742;51.816;8.662;2023-04-22T11:53:46;28.50;48.90
21169;DHT22;10742;51.816;8.662;2023-04-22T11:56:50;28.50;48.80
21169;DHT22;10742;51.816;8.662;2023-04-22T11:59:56;28.60;48.80
21169;DHT22;10742;51.816;8.662;2023-04-22T12:03:03;28.60;48.20
21169;DHT22;10742;51.816;8.662;2023-04-22T12:06:05;28.60;48.00
21169;DHT22;10742;51.816;8.662;2023-04-22T12:09:08;28.60;48.40
21169;DHT22;10742;51.816;8.662;2023-04-22T12:12:13;28.70;48.50
21169;DHT22;10742;51.816;8.662;2023-04-22T12:15:16;28.70;48.20
21169;DHT22;10742;51.816;8.662;2023-04-22T12:18:34;28.70;48.10
21169;DHT22;10742;51.816;8.662;2023-04-22T12:21:37;28.80;47.30
21169;DHT22;10742;51.816;8.662;2023-04-22T12:24:44;28.80;47.70
21169;DHT22;10742;51.816;8.662;2023-04-22T12:27:47;28.80;47.00
21169;DHT22;10742;51.816;8.662;2023-04-22T12:30:50;28.80;47.00
21169;DHT22;10742;51.816;8.662;2023-04-22T12:33:52;28.70;46.60
21169;DHT22;10742;51.816;8.662;2023-04-22T12:36:55;28.70;46.70
21169;DHT22;10742;51.816;8.662;2023-04-22T12:39:57;28.60;46.60
21169;DHT22;10742;51.816;8.662;2023-04-22T12:43:00;28.60;46.90
21169;DHT22;10742;51.816;8.662;2023-04-22T12:46:03;28.60;47.00
21169;DHT22;10742;51.816;8.662;2023-04-22T12:49:08;28.60;46.70
21169;DHT22;10742;51.816;8.662;2023-04-22T12:52:10;28.60;46.40
21169;DHT22;10742;51.816;8.662;2023-04-22T12:55:13;28.60;46.70
21169;DHT22;10742;51.816;8.662;2023-04-22T12:58:16;28.60;46.40
21169;DHT22;10742;51.816;8.662;2023-04-22T13:01:18;28.60;46.30
21169;DHT22;10742;51.816;8.662;2023-04-22T13:04:21;28.60;46.00
21169;DHT22;10742;51.816;8.662;2023-04-22T13:07:26;28.60;46.30
21169;DHT22;10742;51.816;8.662;2023-04-22T13:10:28;28.60;46.10
21169;DHT22;10742;51.816;8.662;2023-04-22T13:13:33;28.70;46.60
21169;DHT22;10742;51.816;8.662;2023-04-22T13:16:36;28.70;45.90
21169;DHT22;10742;51.816;8.662;2023-04-22T13:19:38;28.70;46.00
21169;DHT22;10742;51.816;8.662;2023-04-22T13:22:41;28.70;45.80
21169;DHT22;10742;51.816;8.662;2023-04-22T13:25:44;28.70;45.80
21169;DHT22;10742;51.816;8.662;2023-04-22T13:28:47;28.70;45.70
21169;DHT22;10742;51.816;8.662;2023-04-22T13:31:49;28.70;46.00
21169;DHT22;10742;51.816;8.662;2023-04-22T13:34:52;28.80;45.80
21169;DHT22;10742;51.816;8.662;2023-04-22T13:37:55;28.80;45.50
21169;DHT22;10742;51.816;8.662;2023-04-22T13:40:57;28.80;45.40
21169;DHT22;10742;51.816;8.662;2023-04-22T13:44:00;28.70;45.30
21169;DHT22;10742;51.816;8.662;2023-04-22T13:47:05;28.70;45.40
21169;DHT22;10742;51.816;8.662;2023-04-22T13:50:07;28.70;45.10
21169;DHT22;10742;51.816;8.662;2023-04-22T13:53:11;28.60;45.20
21169;DHT22;10742;51.816;8.662;2023-04-22T13:56:14;28.60;44.70
21169;DHT22;10742;51.816;8.662;2023-04-22T13:59:16;28.60;44.70
21169;DHT22;10742;51.816;8.662;2023-04-22T14:02:18;28.50;44.60
21169;DHT22;10742;51.816;8.662;2023-04-22T14:05:21;28.40;44.80
21169;DHT22;10742;51.816;8.662;2023-04-22T14:08:24;28.40;44.90
21169;DHT22;10742;51.816;8.662;2023-04-22T14:11:27;28.30;44.90
21169;DHT22;10742;51.816;8.662;2023-04-22T14:14:29;28.30;44.90
21169;DHT22;10742;51.816;8.662;2023-04-22T14:17:32;28.30;45.30
21169;DHT22;10742;51.816;8.662;2023-04-22T14:20:34;28.20;45.10
21169;DHT22;10742;51.816;8.662;2023-04-22T14:23:40;28.20;45.30
21169;DHT22;10742;51.816;8.662;2023-04-22T14:26:43;28.30;45.10
21169;DHT22;10742;51.816;8.662;2023-04-22T14:29:45;28.30;45.30
21169;DHT22;10742;51.816;8.662;2023-04-22T14:32:48;28.30;45.50
21169;DHT22;10742;51.816;8.662;2023-04-22T14:35:51;28.30;45.40
21169;DHT22;10742;51.816;8.662;2023-04-22T14:38:54;28.30;45.30
21169;DHT22;10742;51.816;8.662;2023-04-22T14:41:56;28.30;45.40
21169;DHT22;10742;51.816;8.662;2023-04-22T14:44:59;28.40;45.20
21169;DHT22;10742;51.816;8.662;2023-04-22T14:48:01;28.40;45.10
21169;DHT22;10742;51.816;8.662;2023-04-22T14:51:04;28.40;45.00
21169;DHT22;10742;51.816;8.662;2023-04-22T14:54:07;28.30;44.80
21169;DHT22;10742;51.816;8.662;2023-04-22T14:57:09;28.30;44.50
21169;DHT22;10742;51.816;8.662;2023-04-22T15:00:30;28.30;44.80
21169;DHT22;10742;51.816;8.662;2023-04-22T15:03:52;28.30;44.50
21169;DHT22;10742;51.816;8.662;2023-04-22T15:06:55;28.20;44.60
21169;DHT22;10742;51.816;8.662;2023-04-22T15:09:59;28.20;44.60
21169;DHT22;10742;51.816;8.662;2023-04-22T15:13:01;28.20;44.80
21169;DHT22;10742;51.816;8.662;2023-04-22T15:16:04;28.10;44.50
21169;DHT22;10742;51.816;8.662;2023-04-22T15:19:07;28.10;44.40
21169;DHT22;10742;51.816;8.662;2023-04-22T15:22:09;28.10;44.40
21169;DHT22;10742;51.816;8.662;2023-04-22T15:25:12;28.00;44.50
21169;DHT22;10742;51.816;8.662;2023-04-22T15:28:15;27.90;45.20
21169;DHT22;10742;51.816;8.662;2023-04-22T15:31:19;27.90;44.60
21169;DHT22;10742;51.816;8.662;2023-04-22T15:34:23;27.80;44.50
21169;DHT22;10742;51.816;8.662;2023-04-22T15:37:26;27.80;44.80
21169;DHT22;10742;51.816;8.662;2023-04-22T15:40:28;27.70;44.80
21169;DHT22;10742;51.816;8.662;2023-04-22T15:43:31;27.60;44.80
21169;DHT22;10742;51.816;8.662;2023-04-22T15:46:33;27.60;44.80
21169;DHT22;10742;51.816;8.662;2023-04-22T15:49:36;27.50;45.00
21169;DHT22;10742;51.816;8.662;2023-04-22T15:52:39;27.50;45.20
21169;DHT22;10742;51.816;8.662;2023-04-22T15:55:42;27.40;45.30
21169;DHT22;10742;51.816;8.662;2023-04-22T15:58:44;27.30;45.40
21169;DHT22;10742;51.816;8.662;2023-04-22T16:01:48;27.30;45.40
21169;DHT22;10742;51.816;8.662;2023-04-22T16:04:51;27.30;46.10
21169;DHT22;10742;51.816;8.662;2023-04-22T16:07:53;27.20;47.00
21169;DHT22;10742;51.816;8.662;2023-04-22T16:10:57;27.10;48.00
21169;DHT22;10742;51.816;8.662;2023-04-22T16:13:59;27.00;48.40
21169;DHT22;10742;51.816;8.662;2023-04-22T16:17:02;26.90;49.00
21169;DHT22;10742;51.816;8.662;2023-04-22T16:20:08;26.80;49.30
21169;DHT22;10742;51.816;8.662;2023-04-22T16:23:10;26.60;50.10
21169;DHT22;10742;51.816;8.662;2023-04-22T16:26:13;26.60;50.10
21169;DHT22;10742;51.816;8.662;2023-04-22T16:29:15;26.40;50.00
21169;DHT22;10742;51.816;8.662;2023-04-22T16:32:18;26.30;50.00
21169;DHT22;10742;51.816;8.662;2023-04-22T16:35:20;26.20;50.50
21169;DHT22;10742;51.816;8.662;2023-04-22T16:38:23;26.10;50.60
21169;DHT22;10742;51.816;8.662;2023-04-22T16:41:25;25.90;51.20
21169;DHT22;10742;51.816;8.662;2023-04-22T16:44:28;25.70;51.30
21169;DHT22;10742;51.816;8.662;2023-04-22T16:47:30;25.60;51.50
21169;DHT22;10742;51.816;8.662;2023-04-22T16:50:33;25.50;51.80
21169;DHT22;10742;51.816;8.662;2023-04-22T16:53:35;25.30;52.10
21169;DHT22;10742;51.816;8.662;2023-04-22T16:56:39;25.20;52.70
21169;DHT22;10742;51.816;8.662;2023-04-22T16:59:41;25.10;52.90
21169;DHT22;10742;51.816;8.662;2023-04-22T17:02:44;25.00;53.90
21169;DHT22;10742;51.816;8.662;2023-04-22T17:05:46;25.00;53.40
21169;DHT22;10742;51.816;8.662;2023-04-22T17:08:49;24.90;53.60
21169;DHT22;10742;51.816;8.662;2023-04-22T17:11:55;24.80;53.90
21169;DHT22;10742;51.816;8.662;2023-04-22T17:14:57;24.70;54.20
21169;DHT22;10742;51.816;8.662;2023-04-22T17:18:00;24.70;54.60
21169;DHT22;10742;51.816;8.662;2023-04-22T17:21:03;24.60;54.90
21169;DHT22;10742;51.816;8.662;2023-04-22T17:24:06;24.60;55.30
21169;DHT22;10742;51.816;8.662;2023-04-22T17:27:08;24.50;55.60
21169;DHT22;10742;51.816;8.662;2023-04-22T17:30:11;24.40;55.80
21169;DHT22;10742;51.816;8.662;2023-04-22T17:33:33;24.40;55.80
21169;DHT22;10742;51.816;8.662;2023-04-22T17:36:56;24.40;56.10
21169;DHT22;10742;51.816;8.662;2023-04-22T17:40:18;24.30;56.10
21169;DHT22;10742;51.816;8.662;2023-04-22T17:43:39;24.30;56.30
21169;DHT22;10742;51.816;8.662;2023-04-22T17:47:01;24.20;56.60
21169;DHT22;10742;51.816;8.662;2023-04-22T17:50:23;24.20;56.70
21169;DHT22;10742;51.816;8.662;2023-04-22T17:53:44;24.10;57.20
21169;DHT22;10742;51.816;8.662;2023-04-22T17:56:47;24.10;57.60
21169;DHT22;10742;51.816;8.662;2023-04-22T17:59:49;24.10;58.00
21169;DHT22;10742;51.816;8.662;2023-04-22T18:02:52;24.00;58.50
21169;DHT22;10742;51.816;8.662;2023-04-22T18:05:55;23.50;63.40
21169;DHT22;10742;51.816;8.662;2023-04-22T18:08:57;23.30;65.20
21169;DHT22;10742;51.816;8.662;2023-04-22T18:12:00;23.40;63.40
21169;DHT22;10742;51.816;8.662;2023-04-22T18:15:03;23.50;62.50
21169;DHT22;10742;51.816;8.662;2023-04-22T18:18:06;23.50;62.00
21169;DHT22;10742;51.816;8.662;2023-04-22T18:21:09;23.50;61.80
21169;DHT22;10742;51.816;8.662;2023-04-22T18:24:11;23.50;61.80
21169;DHT22;10742;51.816;8.662;2023-04-22T18:27:14;23.50;61.80
21169;DHT22;10742;51.816;8.662;2023-04-22T18:30:17;23.40;61.90
21169;DHT22;10742;51.816;8.662;2023-04-22T18:33:20;23.40;62.20
21169;DHT22;10742;51.816;8.662;2023-04-22T18:36:22;23.30;62.40
21169;DHT22;10742;51.816;8.662;2023-04-22T18:39:24;23.30;62.80
21169;DHT22;10742;51.816;8.662;2023-04-22T18:42:27;23.20;63.00
21169;DHT22;10742;51.816;8.662;2023-04-22T18:45:30;23.10;63.30
21169;DHT22;10742;51.816;8.662;2023-04-22T18:48:32;23.20;63.70
21169;DHT22;10742;51.816;8.662;2023-04-22T18:51:35;23.00;64.00
21169;DHT22;10742;51.816;8.662;2023-04-22T18:54:38;23.00;64.50
21169;DHT22;10742;51.816;8.662;2023-04-22T18:57:40;23.00;64.60
21169;DHT22;10742;51.816;8.662;2023-04-22T19:00:43;22.90;64.90
21169;DHT22;10742;51.816;8.662;2023-04-22T19:03:45;22.90;65.30
21169;DHT22;10742;51.816;8.662;2023-04-22T19:06:48;22.80;65.70
21169;DHT22;10742;51.816;8.662;2023-04-22T19:09:50;22.80;65.90
21169;DHT22;10742;51.816;8.662;2023-04-22T19:12:53;22.70;66.10
21169;DHT22;10742;51.816;8.662;2023-04-22T19:15:56;22.70;66.60
21169;DHT22;10742;51.816;8.662;2023-04-22T19:18:59;22.70;67.00
21169;DHT22;10742;51.816;8.662;2023-04-22T19:22:02;22.60;67.30
21169;DHT22;10742;51.816;8.662;2023-04-22T19:25:05;22.60;67.60
21169;DHT22;10742;51.816;8.662;2023-04-22T19:28:08;22.50;68.10
21169;DHT22;10742;51.816;8.662;2023-04-22T19:31:10;22.50;68.30
21169;DHT22;10742;51.816;8.662;2023-04-22T19:34:13;22.50;68.70
21169;DHT22;10742;51.816;8.662;2023-04-22T19:37:15;22.40;69.10